Welcome!

Visit our other weather sites:

Template documentation
and downloads

And another site



from: Jul 17 2019 1:00 pm until: Jul 19 2019 10:00 pm Excessive Heat Warning level: Moderate
Possible threat to life or property - Responsive action SHOULD be taken soon (within next hour)

Select another period ( hide this area )

Units Period Custom range Directly to
Metric English Both
Daily Weekly Monthly Yearly
use both date-selectors for a custom range
previous Day
With this date

WeatherUnderground graphs for this period ( click here )


Daily Summary for Wednesday Jul 17 2019
Time Temp. ( °C ) Dew pt. ( °C ) Wind ( km/h ) from Gust ( km/h ) Pressure ( hPa ) Humid.( % ) Rainrate ( cm )
High25,6 22,3 13,0 SSE ( 65/131 ) 10,1 1008,0 83 -
Average24,8 21,4 8,0 SSE #14/26 5,3 1009,0 82 -
Low24,2 20,8 5,6   2,4 1007,0 80 -
Daily Tabular details for Wednesday Jul 17 2019
Time Temp. ( °C ) Dew pt. ( °C ) Wind ( km/h ) from Gust ( km/h ) Pressure ( hPa ) Humid.( % ) Rainrate ( cm )
00:04 25,6 22,3 5,6 SSE 3,5 1008,0 82 -
00:09 25,5 22,2 8,0 SE 5,0 1008,0 82 -
00:14 25,6 22,3 6,4 SE 5,6 1008,0 82 -
00:19 25,5 22,2 9,3 SSE 4,7 1008,0 82 -
00:24 25,3 22,1 5,6 SE 4,5 1008,0 82 -
00:29 25,3 22,0 11,1 SE 5,6 1008,0 82 -
00:34 25,2 21,9 12,9 SE 10,1 1007,7 82 -
00:39 25,1 21,8 13,0 SE 7,9 1007,7 82 -
00:44 25,1 21,8 7,4 SSE 6,3 1007,7 82 -
00:49 24,9 21,7 7,4 SE 5,8 1007,7 82 -
00:54 24,8 21,6 7,4 SSE 5,0 1007,7 82 -
00:59 24,8 21,5 8,0 SSE 6,1 1007,7 82 -
01:04 24,7 21,4 7,4 SSE 4,7 1007,3 82 -
01:09 24,6 21,3 5,6 SE 4,8 1007,3 82 -
01:14 24,5 21,2 9,3 SSE 5,8 1007,3 82 -
01:19 24,4 21,1 9,3 SSE 6,1 1007,0 82 -
01:24 24,3 21,2 9,3 SSE 6,9 1007,0 83 -
01:29 24,2 20,9 5,6 SSE 5,0 1007,0 82 -
01:34 24,3 21,0 7,4 SE 4,0 1007,0 82 -
01:39 24,4 21,1 7,4 SE 3,5 1007,0 82 -
01:44 24,4 20,9 5,6 SSE 4,5 1007,0 81 -
01:49 24,4 20,9 5,6 SSE 4,8 1007,0 81 -
01:54 24,4 20,9 8,0 ESE 6,3 1007,0 81 -
01:59 24,4 20,9 5,6 SSE 2,4 1007,0 81 -
02:04 24,4 20,9 13,0 SE 3,4 1007,0 81 -
02:09 24,4 20,8 9,3 SSE 4,7 1007,0 80 -
Daily Summary for Wednesday Jul 17 2019
Time Temp. ( °C ) Dew pt. ( °C ) Wind ( km/h ) from Gust ( km/h ) Pressure ( hPa ) Humid.( % ) Rainrate ( cm )
High25,6 22,3 13,0 SSE ( 65/131 ) 10,1 1008,0 83 -
Average24,8 21,4 8,0 SSE #14/26 5,3 1009,0 82 -
Low24,2 20,8 5,6   2,4 1007,0 80 -
Daily Tabular details for Wednesday Jul 17 2019
Time Temp. ( °C ) Dew pt. ( °C ) Wind ( km/h ) from Gust ( km/h ) Pressure ( hPa ) Humid.( % ) Rainrate ( cm )
00:04 25,6 22,3 5,6 SSE 3,5 1008,0 82 -
00:09 25,5 22,2 8,0 SE 5,0 1008,0 82 -
00:14 25,6 22,3 6,4 SE 5,6 1008,0 82 -
00:19 25,5 22,2 9,3 SSE 4,7 1008,0 82 -
00:24 25,3 22,1 5,6 SE 4,5 1008,0 82 -
00:29 25,3 22,0 11,1 SE 5,6 1008,0 82 -
00:34 25,2 21,9 12,9 SE 10,1 1007,7 82 -
00:39 25,1 21,8 13,0 SE 7,9 1007,7 82 -
00:44 25,1 21,8 7,4 SSE 6,3 1007,7 82 -
00:49 24,9 21,7 7,4 SE 5,8 1007,7 82 -
00:54 24,8 21,6 7,4 SSE 5,0 1007,7 82 -
00:59 24,8 21,5 8,0 SSE 6,1 1007,7 82 -
01:04 24,7 21,4 7,4 SSE 4,7 1007,3 82 -
01:09 24,6 21,3 5,6 SE 4,8 1007,3 82 -
01:14 24,5 21,2 9,3 SSE 5,8 1007,3 82 -
01:19 24,4 21,1 9,3 SSE 6,1 1007,0 82 -
01:24 24,3 21,2 9,3 SSE 6,9 1007,0 83 -
01:29 24,2 20,9 5,6 SSE 5,0 1007,0 82 -
01:34 24,3 21,0 7,4 SE 4,0 1007,0 82 -
01:39 24,4 21,1 7,4 SE 3,5 1007,0 82 -
01:44 24,4 20,9 5,6 SSE 4,5 1007,0 81 -
01:49 24,4 20,9 5,6 SSE 4,8 1007,0 81 -
01:54 24,4 20,9 8,0 ESE 6,3 1007,0 81 -
01:59 24,4 20,9 5,6 SSE 2,4 1007,0 81 -
02:04 24,4 20,9 13,0 SE 3,4 1007,0 81 -
02:09 24,4 20,8 9,3 SSE 4,7 1007,0 80 -

Download your copy of this data-set  here

Our weather-data as stored at Weather Underground. Script developed by Jim McMurry. Adapted for the template by Leuven-Template.eu